sensor_id;sensor_type;location;lat;lon;timestamp;pressure;altitude;pressure_sealevel;temperature;humidity
73242;BME280;65659;49.234;-2.094;2023-04-27T00:00:06;100442.94;;;18.10;45.33
73242;BME280;65659;49.234;-2.094;2023-04-27T00:02:31;100438.02;;;17.89;45.24
73242;BME280;65659;49.234;-2.094;2023-04-27T00:04:55;100436.07;;;18.13;45.20
73242;BME280;65659;49.234;-2.094;2023-04-27T00:07:21;100434.14;;;18.14;45.18
73242;BME280;65659;49.234;-2.094;2023-04-27T00:09:47;100430.49;;;17.88;45.20
73242;BME280;65659;49.234;-2.094;2023-04-27T00:12:12;100431.07;;;18.13;45.20
73242;BME280;65659;49.234;-2.094;2023-04-27T00:14:37;100435.20;;;17.92;45.15
73242;BME280;65659;49.234;-2.094;2023-04-27T00:17:03;100435.31;;;17.93;45.16
73242;BME280;65659;49.234;-2.094;2023-04-27T00:19:29;100435.44;;;18.19;45.03
73242;BME280;65659;49.234;-2.094;2023-04-27T00:21:54;100437.79;;;17.95;45.03
73242;BME280;65659;49.234;-2.094;2023-04-27T00:24:20;100439.49;;;18.15;45.08
73242;BME280;65659;49.234;-2.094;2023-04-27T00:26:46;100439.53;;;17.89;45.10
73242;BME280;65659;49.234;-2.094;2023-04-27T00:29:12;100435.05;;;17.88;45.05
73242;BME280;65659;49.234;-2.094;2023-04-27T00:31:37;100435.74;;;18.10;45.06
73242;BME280;65659;49.234;-2.094;2023-04-27T00:34:03;100433.17;;;18.10;45.06
73242;BME280;65659;49.234;-2.094;2023-04-27T00:36:29;100427.84;;;18.03;45.02
73242;BME280;65659;49.234;-2.094;2023-04-27T00:38:55;100430.79;;;17.99;45.03
73242;BME280;65659;49.234;-2.094;2023-04-27T00:41:20;100434.53;;;17.95;45.10
73242;BME280;65659;49.234;-2.094;2023-04-27T00:43:46;100436.58;;;17.87;45.16
73242;BME280;65659;49.234;-2.094;2023-04-27T00:46:12;100440.55;;;17.56;45.24
73242;BME280;65659;49.234;-2.094;2023-04-27T00:48:37;100444.29;;;17.47;45.25
73242;BME280;65659;49.234;-2.094;2023-04-27T00:51:03;100444.04;;;17.62;45.30
73242;BME280;65659;49.234;-2.094;2023-04-27T00:53:29;100441.77;;;17.54;45.37
73242;BME280;65659;49.234;-2.094;2023-04-27T00:55:54;100437.67;;;17.44;45.46
73242;BME280;65659;49.234;-2.094;2023-04-27T00:58:19;100436.49;;;17.09;45.65
73242;BME280;65659;49.234;-2.094;2023-04-27T01:00:45;100430.79;;;17.50;45.68
73242;BME280;65659;49.234;-2.094;2023-04-27T01:03:10;100427.21;;;17.18;45.81
73242;BME280;65659;49.234;-2.094;2023-04-27T01:05:36;100422.80;;;17.11;45.95
73242;BME280;65659;49.234;-2.094;2023-04-27T01:08:01;100423.83;;;17.30;45.93
73242;BME280;65659;49.234;-2.094;2023-04-27T01:10:26;100424.06;;;17.23;46.00
73242;BME280;65659;49.234;-2.094;2023-04-27T01:12:52;100430.64;;;17.17;46.00
73242;BME280;65659;49.234;-2.094;2023-04-27T01:15:18;100429.97;;;17.11;45.99
73242;BME280;65659;49.234;-2.094;2023-04-27T01:17:43;100425.35;;;17.06;45.83
73242;BME280;65659;49.234;-2.094;2023-04-27T01:20:10;100419.38;;;17.22;45.90
73242;BME280;65659;49.234;-2.094;2023-04-27T01:22:34;100418.20;;;17.14;46.06
73242;BME280;65659;49.234;-2.094;2023-04-27T01:25:00;100414.54;;;16.82;46.03
73242;BME280;65659;49.234;-2.094;2023-04-27T01:27:25;100406.00;;;16.71;46.20
73242;BME280;65659;49.234;-2.094;2023-04-27T01:29:51;100394.54;;;16.40;46.50
73242;BME280;65659;49.234;-2.094;2023-04-27T01:32:16;100390.72;;;16.81;46.62
73242;BME280;65659;49.234;-2.094;2023-04-27T01:34:41;100392.61;;;16.72;46.80
73242;BME280;65659;49.234;-2.094;2023-04-27T01:37:07;100390.93;;;16.65;46.89
73242;BME280;65659;49.234;-2.094;2023-04-27T01:39:32;100389.00;;;16.62;47.10
73242;BME280;65659;49.234;-2.094;2023-04-27T01:41:57;100383.65;;;16.55;47.04
73242;BME280;65659;49.234;-2.094;2023-04-27T01:44:23;100383.88;;;16.48;47.26
73242;BME280;65659;49.234;-2.094;2023-04-27T01:46:48;100383.64;;;16.42;47.18
73242;BME280;65659;49.234;-2.094;2023-04-27T01:49:13;100382.34;;;16.37;47.18
73242;BME280;65659;49.234;-2.094;2023-04-27T01:51:39;100385.79;;;16.31;47.09
73242;BME280;65659;49.234;-2.094;2023-04-27T01:54:04;100387.94;;;16.51;47.10
73242;BME280;65659;49.234;-2.094;2023-04-27T01:56:30;100398.79;;;16.21;46.94
73242;BME280;65659;49.234;-2.094;2023-04-27T01:58:55;100402.72;;;16.17;46.69
73242;BME280;65659;49.234;-2.094;2023-04-27T02:01:20;100405.03;;;16.12;46.52
73242;BME280;65659;49.234;-2.094;2023-04-27T02:03:46;100396.60;;;16.10;46.60
73242;BME280;65659;49.234;-2.094;2023-04-27T02:06:11;100388.46;;;15.85;46.83
73242;BME280;65659;49.234;-2.094;2023-04-27T02:08:36;100382.20;;;16.29;47.10
73242;BME280;65659;49.234;-2.094;2023-04-27T02:11:02;100378.51;;;16.00;47.32
73242;BME280;65659;49.234;-2.094;2023-04-27T02:13:27;100375.85;;;16.20;47.56
73242;BME280;65659;49.234;-2.094;2023-04-27T02:15:53;100372.65;;;15.96;47.63
73242;BME280;65659;49.234;-2.094;2023-04-27T02:18:18;100374.37;;;16.20;47.54
73242;BME280;65659;49.234;-2.094;2023-04-27T02:20:44;100369.93;;;16.20;47.64
73242;BME280;65659;49.234;-2.094;2023-04-27T02:23:10;100368.71;;;16.14;47.78
73242;BME280;65659;49.234;-2.094;2023-04-27T02:25:36;100366.91;;;16.39;47.86
73242;BME280;65659;49.234;-2.094;2023-04-27T02:28:00;100371.96;;;16.12;48.12
73242;BME280;65659;49.234;-2.094;2023-04-27T02:30:26;100372.97;;;16.13;48.11
73242;BME280;65659;49.234;-2.094;2023-04-27T02:32:52;100370.00;;;16.09;48.15
73242;BME280;65659;49.234;-2.094;2023-04-27T02:35:17;100370.05;;;16.07;48.35
73242;BME280;65659;49.234;-2.094;2023-04-27T02:37:42;100363.20;;;16.04;48.33
73242;BME280;65659;49.234;-2.094;2023-04-27T02:40:09;100357.64;;;15.77;48.40
73242;BME280;65659;49.234;-2.094;2023-04-27T02:42:33;100354.75;;;15.79;48.53
73242;BME280;65659;49.234;-2.094;2023-04-27T02:44:58;100354.04;;;16.03;48.47
73242;BME280;65659;49.234;-2.094;2023-04-27T02:47:23;100351.98;;;16.00;48.58
73242;BME280;65659;49.234;-2.094;2023-04-27T02:49:49;100348.83;;;15.79;48.62
73242;BME280;65659;49.234;-2.094;2023-04-27T02:52:14;100348.40;;;16.28;48.76
73242;BME280;65659;49.234;-2.094;2023-04-27T02:54:39;100351.50;;;16.07;48.83
73242;BME280;65659;49.234;-2.094;2023-04-27T02:57:05;100352.59;;;16.09;48.77
73242;BME280;65659;49.234;-2.094;2023-04-27T02:59:31;100353.31;;;15.92;48.82
73242;BME280;65659;49.234;-2.094;2023-04-27T03:01:56;100351.69;;;16.42;48.92
73242;BME280;65659;49.234;-2.094;2023-04-27T03:04:21;100351.82;;;16.26;48.82
73242;BME280;65659;49.234;-2.094;2023-04-27T03:06:47;100348.46;;;16.06;48.93
73242;BME280;65659;49.234;-2.094;2023-04-27T03:09:12;100351.75;;;16.39;48.83
73242;BME280;65659;49.234;-2.094;2023-04-27T03:11:37;100348.25;;;16.21;48.84
73242;BME280;65659;49.234;-2.094;2023-04-27T03:14:02;100348.63;;;16.26;48.88
73242;BME280;65659;49.234;-2.094;2023-04-27T03:16:30;100352.45;;;16.30;48.82
73242;BME280;65659;49.234;-2.094;2023-04-27T03:18:53;100349.51;;;16.58;48.78
73242;BME280;65659;49.234;-2.094;2023-04-27T03:21:19;100351.77;;;16.44;48.76
73242;BME280;65659;49.234;-2.094;2023-04-27T03:23:44;100350.65;;;16.53;48.85
73242;BME280;65659;49.234;-2.094;2023-04-27T03:26:11;100352.30;;;16.60;48.86
73242;BME280;65659;49.234;-2.094;2023-04-27T03:28:34;100342.36;;;16.70;48.87
73242;BME280;65659;49.234;-2.094;2023-04-27T03:31:00;100336.14;;;16.56;48.90
73242;BME280;65659;49.234;-2.094;2023-04-27T03:33:25;100326.56;;;16.91;48.82
73242;BME280;65659;49.234;-2.094;2023-04-27T03:35:54;100323.97;;;17.02;48.77
73242;BME280;65659;49.234;-2.094;2023-04-27T03:38:16;100323.73;;;17.10;48.78
73242;BME280;65659;49.234;-2.094;2023-04-27T03:40:41;100318.28;;;16.97;48.70
73242;BME280;65659;49.234;-2.094;2023-04-27T03:43:07;100314.78;;;17.31;48.63
73242;BME280;65659;49.234;-2.094;2023-04-27T03:45:32;100311.02;;;17.13;48.67
73242;BME280;65659;49.234;-2.094;2023-04-27T03:47:57;100308.13;;;17.21;48.62
73242;BME280;65659;49.234;-2.094;2023-04-27T03:50:23;100308.35;;;17.03;48.56
73242;BME280;65659;49.234;-2.094;2023-04-27T03:52:48;100306.90;;;17.09;48.51
73242;BME280;65659;49.234;-2.094;2023-04-27T03:55:13;100302.58;;;17.12;48.57
73242;BME280;65659;49.234;-2.094;2023-04-27T03:57:38;100301.63;;;17.41;48.53
73242;BME280;65659;49.234;-2.094;2023-04-27T04:00:05;100301.28;;;17.46;48.52
73242;BME280;65659;49.234;-2.094;2023-04-27T04:02:29;100298.40;;;17.25;48.52
73242;BME280;65659;49.234;-2.094;2023-04-27T04:04:54;100292.98;;;17.31;48.51
73242;BME280;65659;49.234;-2.094;2023-04-27T04:07:19;100291.06;;;17.32;48.49
73242;BME280;65659;49.234;-2.094;2023-04-27T04:09:45;100281.99;;;17.34;48.52
73242;BME280;65659;49.234;-2.094;2023-04-27T04:12:10;100282.24;;;17.38;48.51
73242;BME280;65659;49.234;-2.094;2023-04-27T04:14:36;100283.93;;;17.41;48.42
73242;BME280;65659;49.234;-2.094;2023-04-27T04:17:02;100287.82;;;17.41;48.41
73242;BME280;65659;49.234;-2.094;2023-04-27T04:19:27;100284.25;;;17.41;48.42
73242;BME280;65659;49.234;-2.094;2023-04-27T04:21:53;100284.94;;;17.41;48.42
73242;BME280;65659;49.234;-2.094;2023-04-27T04:24:19;100279.71;;;17.41;48.44
73242;BME280;65659;49.234;-2.094;2023-04-27T04:26:45;100273.99;;;17.42;48.37
73242;BME280;65659;49.234;-2.094;2023-04-27T04:29:10;100271.08;;;17.45;48.34
73242;BME280;65659;49.234;-2.094;2023-04-27T04:31:35;100265.57;;;17.44;48.29
73242;BME280;65659;49.234;-2.094;2023-04-27T04:34:01;100258.90;;;17.43;48.31
73242;BME280;65659;49.234;-2.094;2023-04-27T04:36:26;100259.47;;;17.39;48.36
73242;BME280;65659;49.234;-2.094;2023-04-27T04:38:52;100258.36;;;17.38;48.41
73242;BME280;65659;49.234;-2.094;2023-04-27T04:41:17;100254.52;;;17.38;48.36
73242;BME280;65659;49.234;-2.094;2023-04-27T04:43:42;100248.53;;;17.42;48.41
73242;BME280;65659;49.234;-2.094;2023-04-27T04:46:08;100243.22;;;17.40;48.40
73242;BME280;65659;49.234;-2.094;2023-04-27T04:48:34;100235.86;;;17.41;48.44
73242;BME280;65659;49.234;-2.094;2023-04-27T04:50:59;100220.84;;;17.30;48.55
73242;BME280;65659;49.234;-2.094;2023-04-27T04:53:25;100217.54;;;17.34;48.53
73242;BME280;65659;49.234;-2.094;2023-04-27T04:55:51;100222.45;;;17.34;48.54
73242;BME280;65659;49.234;-2.094;2023-04-27T04:58:16;100227.76;;;17.36;48.54
73242;BME280;65659;49.234;-2.094;2023-04-27T05:00:41;100229.23;;;17.38;48.56
73242;BME280;65659;49.234;-2.094;2023-04-27T05:03:07;100234.97;;;17.34;48.58
73242;BME280;65659;49.234;-2.094;2023-04-27T05:05:33;100233.51;;;17.35;48.61
73242;BME280;65659;49.234;-2.094;2023-04-27T05:07:58;100232.93;;;17.61;48.58
73242;BME280;65659;49.234;-2.094;2023-04-27T05:10:23;100233.19;;;17.37;48.57
73242;BME280;65659;49.234;-2.094;2023-04-27T05:12:49;100236.11;;;17.38;48.58
73242;BME280;65659;49.234;-2.094;2023-04-27T05:15:15;100238.23;;;17.39;48.48
73242;BME280;65659;49.234;-2.094;2023-04-27T05:17:40;100231.48;;;17.41;48.51
73242;BME280;65659;49.234;-2.094;2023-04-27T05:20:06;100234.38;;;17.41;48.47
73242;BME280;65659;49.234;-2.094;2023-04-27T05:22:31;100236.12;;;17.39;48.50
73242;BME280;65659;49.234;-2.094;2023-04-27T05:24:56;100244.65;;;17.34;48.58
73242;BME280;65659;49.234;-2.094;2023-04-27T05:27:21;100245.47;;;17.31;48.53
73242;BME280;65659;49.234;-2.094;2023-04-27T05:29:46;100250.27;;;17.35;48.46
73242;BME280;65659;49.234;-2.094;2023-04-27T05:32:12;100258.17;;;17.52;48.53
73242;BME280;65659;49.234;-2.094;2023-04-27T05:34:38;100263.27;;;17.49;48.52
73242;BME280;65659;49.234;-2.094;2023-04-27T05:37:04;100265.54;;;17.28;48.50
73242;BME280;65659;49.234;-2.094;2023-04-27T05:39:29;100271.14;;;17.25;48.52
73242;BME280;65659;49.234;-2.094;2023-04-27T05:41:54;100269.27;;;17.27;48.49
73242;BME280;65659;49.234;-2.094;2023-04-27T05:44:20;100267.99;;;17.20;48.52
73242;BME280;65659;49.234;-2.094;2023-04-27T05:46:46;100269.19;;;17.22;48.50
73242;BME280;65659;49.234;-2.094;2023-04-27T05:49:11;100270.66;;;17.25;48.55
73242;BME280;65659;49.234;-2.094;2023-04-27T05:51:36;100270.22;;;17.22;48.50
73242;BME280;65659;49.234;-2.094;2023-04-27T05:54:01;100266.29;;;17.24;48.48
73242;BME280;65659;49.234;-2.094;2023-04-27T05:56:26;100271.68;;;17.26;48.46
73242;BME280;65659;49.234;-2.094;2023-04-27T05:58:52;100277.71;;;17.21;48.65
73242;BME280;65659;49.234;-2.094;2023-04-27T06:01:17;100274.89;;;17.19;48.64
73242;BME280;65659;49.234;-2.094;2023-04-27T06:03:42;100276.57;;;17.15;48.67
73242;BME280;65659;49.234;-2.094;2023-04-27T06:06:08;100281.04;;;17.15;48.62
73242;BME280;65659;49.234;-2.094;2023-04-27T06:08:34;100276.52;;;17.19;48.53
73242;BME280;65659;49.234;-2.094;2023-04-27T06:11:00;100269.78;;;17.19;48.51
73242;BME280;65659;49.234;-2.094;2023-04-27T06:13:25;100270.07;;;17.20;48.45
73242;BME280;65659;49.234;-2.094;2023-04-27T06:15:51;100268.24;;;17.24;48.39
73242;BME280;65659;49.234;-2.094;2023-04-27T06:18:16;100265.68;;;17.31;48.21
73242;BME280;65659;49.234;-2.094;2023-04-27T06:20:42;100265.75;;;17.41;47.98
73242;BME280;65659;49.234;-2.094;2023-04-27T06:23:08;100266.47;;;17.32;47.77
73242;BME280;65659;49.234;-2.094;2023-04-27T06:25:33;100263.96;;;17.41;47.60
73242;BME280;65659;49.234;-2.094;2023-04-27T06:27:59;100264.12;;;17.77;47.55
73242;BME280;65659;49.234;-2.094;2023-04-27T06:30:25;100268.97;;;17.38;47.40
73242;BME280;65659;49.234;-2.094;2023-04-27T06:32:50;100264.45;;;17.23;47.13
73242;BME280;65659;49.234;-2.094;2023-04-27T06:35:17;100266.05;;;17.54;46.97
73242;BME280;65659;49.234;-2.094;2023-04-27T06:37:41;100263.04;;;17.35;46.88
73242;BME280;65659;49.234;-2.094;2023-04-27T06:40:07;100259.02;;;17.27;46.56
73242;BME280;65659;49.234;-2.094;2023-04-27T06:42:32;100264.80;;;17.80;46.29
73242;BME280;65659;49.234;-2.094;2023-04-27T06:44:57;100271.86;;;17.77;46.28
73242;BME280;65659;49.234;-2.094;2023-04-27T06:47:23;100276.24;;;17.59;45.94
73242;BME280;65659;49.234;-2.094;2023-04-27T06:49:49;100277.14;;;17.05;45.76
73242;BME280;65659;49.234;-2.094;2023-04-27T06:52:15;100274.52;;;17.50;45.72
73242;BME280;65659;49.234;-2.094;2023-04-27T06:54:40;100274.06;;;17.39;45.52
73242;BME280;65659;49.234;-2.094;2023-04-27T06:57:05;100270.53;;;17.50;45.20
73242;BME280;65659;49.234;-2.094;2023-04-27T06:59:30;100265.35;;;17.40;45.06
73242;BME280;65659;49.234;-2.094;2023-04-27T07:01:56;100267.07;;;17.50;44.76
73242;BME280;65659;49.234;-2.094;2023-04-27T07:04:22;100268.31;;;17.87;44.50
73242;BME280;65659;49.234;-2.094;2023-04-27T07:06:48;100270.94;;;17.63;44.42
73242;BME280;65659;49.234;-2.094;2023-04-27T07:09:12;100273.58;;;17.82;44.48
73242;BME280;65659;49.234;-2.094;2023-04-27T07:11:38;100278.57;;;17.78;44.50
73242;BME280;65659;49.234;-2.094;2023-04-27T07:14:04;100288.34;;;17.98;44.79
73242;BME280;65659;49.234;-2.094;2023-04-27T07:16:29;100295.49;;;17.39;45.08
73242;BME280;65659;49.234;-2.094;2023-04-27T07:18:54;100295.00;;;17.56;44.90
73242;BME280;65659;49.234;-2.094;2023-04-27T07:21:20;100288.89;;;17.37;44.83
73242;BME280;65659;49.234;-2.094;2023-04-27T07:23:46;100288.97;;;17.63;44.76
73242;BME280;65659;49.234;-2.094;2023-04-27T07:26:11;100283.48;;;17.53;44.64
73242;BME280;65659;49.234;-2.094;2023-04-27T07:28:37;100283.47;;;17.52;44.21
73242;BME280;65659;49.234;-2.094;2023-04-27T07:31:11;100285.99;;;17.27;43.83
73242;BME280;65659;49.234;-2.094;2023-04-27T07:33:35;100281.00;;;17.37;43.56
73242;BME280;65659;49.234;-2.094;2023-04-27T07:35:54;100272.36;;;17.64;43.11
73242;BME280;65659;49.234;-2.094;2023-04-27T07:38:19;100266.02;;;17.64;42.97
73242;BME280;65659;49.234;-2.094;2023-04-27T07:40:46;100269.13;;;17.65;42.84
73242;BME280;65659;49.234;-2.094;2023-04-27T07:43:09;100268.54;;;17.70;42.83
73242;BME280;65659;49.234;-2.094;2023-04-27T07:45:36;100268.67;;;17.59;42.73
73242;BME280;65659;49.234;-2.094;2023-04-27T07:48:01;100270.69;;;17.61;42.48
73242;BME280;65659;49.234;-2.094;2023-04-27T07:50:36;100274.60;;;18.21;42.23
73242;BME280;65659;49.234;-2.094;2023-04-27T07:52:52;100275.36;;;18.20;42.50
73242;BME280;65659;49.234;-2.094;2023-04-27T07:55:24;100270.78;;;17.51;42.45
73242;BME280;65659;49.234;-2.094;2023-04-27T07:57:44;100264.65;;;17.78;42.01
73242;BME280;65659;49.234;-2.094;2023-04-27T08:00:13;100258.05;;;17.99;41.68
73242;BME280;65659;49.234;-2.094;2023-04-27T08:02:34;100254.42;;;18.07;41.30
73242;BME280;65659;49.234;-2.094;2023-04-27T08:04:59;100253.41;;;18.03;41.25
73242;BME280;65659;49.234;-2.094;2023-04-27T08:07:25;100246.87;;;18.02;41.12
73242;BME280;65659;49.234;-2.094;2023-04-27T08:09:52;100243.88;;;17.80;41.03
73242;BME280;65659;49.234;-2.094;2023-04-27T08:12:16;100244.14;;;17.92;41.15
73242;BME280;65659;49.234;-2.094;2023-04-27T08:14:42;100245.77;;;17.92;41.08
73242;BME280;65659;49.234;-2.094;2023-04-27T08:17:07;100248.62;;;17.59;41.16
73242;BME280;65659;49.234;-2.094;2023-04-27T08:19:33;100251.79;;;17.93;41.03
73242;BME280;65659;49.234;-2.094;2023-04-27T08:21:58;100248.23;;;17.82;41.02
73242;BME280;65659;49.234;-2.094;2023-04-27T08:24:22;100244.22;;;17.70;40.91
73242;BME280;65659;49.234;-2.094;2023-04-27T08:26:49;100246.31;;;17.73;40.88
73242;BME280;65659;49.234;-2.094;2023-04-27T08:29:16;100242.66;;;17.71;40.91
73242;BME280;65659;49.234;-2.094;2023-04-27T08:31:43;100234.19;;;17.69;40.98
73242;BME280;65659;49.234;-2.094;2023-04-27T08:34:04;100220.68;;;17.70;40.99
73242;BME280;65659;49.234;-2.094;2023-04-27T08:36:31;100218.46;;;17.71;41.03
73242;BME280;65659;49.234;-2.094;2023-04-27T08:38:58;100226.41;;;17.99;41.10
73242;BME280;65659;49.234;-2.094;2023-04-27T08:41:22;100229.76;;;17.76;41.14
73242;BME280;65659;49.234;-2.094;2023-04-27T08:43:47;100221.29;;;17.83;41.25
73242;BME280;65659;49.234;-2.094;2023-04-27T08:46:14;100220.46;;;17.89;41.25
73242;BME280;65659;49.234;-2.094;2023-04-27T08:48:38;100222.49;;;17.87;41.28
73242;BME280;65659;49.234;-2.094;2023-04-27T08:51:09;100220.91;;;18.11;41.28
73242;BME280;65659;49.234;-2.094;2023-04-27T08:53:30;100221.18;;;18.08;41.47
73242;BME280;65659;49.234;-2.094;2023-04-27T08:55:57;100218.15;;;17.88;41.47
73242;BME280;65659;49.234;-2.094;2023-04-27T08:58:22;100216.58;;;17.97;41.46
73242;BME280;65659;49.234;-2.094;2023-04-27T09:00:49;100215.65;;;17.77;41.46
73242;BME280;65659;49.234;-2.094;2023-04-27T09:03:21;100208.13;;;18.01;41.32
73242;BME280;65659;49.234;-2.094;2023-04-27T09:05:36;100207.20;;;18.17;41.25
73242;BME280;65659;49.234;-2.094;2023-04-27T09:08:03;100208.02;;;18.15;41.30
73242;BME280;65659;49.234;-2.094;2023-04-27T09:10:29;100210.68;;;17.96;41.42
73242;BME280;65659;49.234;-2.094;2023-04-27T09:12:58;100213.67;;;18.20;41.53
73242;BME280;65659;49.234;-2.094;2023-04-27T09:15:17;100209.79;;;18.22;41.37
73242;BME280;65659;49.234;-2.094;2023-04-27T09:17:46;100208.36;;;18.19;41.41
73242;BME280;65659;49.234;-2.094;2023-04-27T09:22:43;100214.65;;;18.31;41.84
73242;BME280;65659;49.234;-2.094;2023-04-27T09:24:59;100218.40;;;18.17;41.90
73242;BME280;65659;49.234;-2.094;2023-04-27T09:27:25;100224.00;;;18.14;41.94
73242;BME280;65659;49.234;-2.094;2023-04-27T09:29:52;100219.77;;;18.38;41.69
73242;BME280;65659;49.234;-2.094;2023-04-27T09:32:18;100223.48;;;18.15;41.68
73242;BME280;65659;49.234;-2.094;2023-04-27T09:34:41;100215.97;;;18.13;41.52
73242;BME280;65659;49.234;-2.094;2023-04-27T09:37:08;100209.34;;;18.14;41.48
73242;BME280;65659;49.234;-2.094;2023-04-27T09:39:33;100208.73;;;18.38;41.31
73242;BME280;65659;49.234;-2.094;2023-04-27T09:41:57;100212.88;;;18.27;41.33
73242;BME280;65659;49.234;-2.094;2023-04-27T09:44:30;100217.32;;;17.75;41.44
73242;BME280;65659;49.234;-2.094;2023-04-27T09:46:57;100219.48;;;17.94;41.60
73242;BME280;65659;49.234;-2.094;2023-04-27T09:49:21;100217.82;;;18.37;41.77
73242;BME280;65659;49.234;-2.094;2023-04-27T09:51:40;100212.80;;;17.59;42.00
73242;BME280;65659;49.234;-2.094;2023-04-27T09:54:07;100218.22;;;17.66;41.88
73242;BME280;65659;49.234;-2.094;2023-04-27T09:56:38;100217.25;;;17.78;41.86
73242;BME280;65659;49.234;-2.094;2023-04-27T09:59:04;100217.88;;;19.10;42.67
73242;BME280;65659;49.234;-2.094;2023-04-27T10:01:25;100216.77;;;18.05;45.17
73242;BME280;65659;49.234;-2.094;2023-04-27T10:03:56;100222.89;;;17.68;47.11
73242;BME280;65659;49.234;-2.094;2023-04-27T10:08:41;100214.37;;;17.01;46.09
73242;BME280;65659;49.234;-2.094;2023-04-27T10:11:13;100207.69;;;16.44;45.62
73242;BME280;65659;49.234;-2.094;2023-04-27T10:13:30;100197.24;;;16.86;44.51
73242;BME280;65659;49.234;-2.094;2023-04-27T10:15:53;100198.22;;;17.47;43.97
73242;BME280;65659;49.234;-2.094;2023-04-27T10:18:25;100193.85;;;18.06;43.80
73242;BME280;65659;49.234;-2.094;2023-04-27T10:20:43;100187.50;;;17.58;44.38
73242;BME280;65659;49.234;-2.094;2023-04-27T10:23:07;100186.86;;;18.60;45.39
73242;BME280;65659;49.234;-2.094;2023-04-27T10:25:37;100192.78;;;18.11;47.38
73242;BME280;65659;49.234;-2.094;2023-04-27T10:28:00;100185.87;;;17.44;49.01
73242;BME280;65659;49.234;-2.094;2023-04-27T10:32:56;100177.71;;;16.03;48.71
73242;BME280;65659;49.234;-2.094;2023-04-27T10:35:17;100161.27;;;16.65;46.38
73242;BME280;65659;49.234;-2.094;2023-04-27T10:37:47;100154.14;;;17.10;45.26
73242;BME280;65659;49.234;-2.094;2023-04-27T10:40:13;100157.10;;;17.66;44.48
73242;BME280;65659;49.234;-2.094;2023-04-27T10:42:35;100159.77;;;17.78;44.08
73242;BME280;65659;49.234;-2.094;2023-04-27T10:45:01;100155.38;;;18.12;43.67
73242;BME280;65659;49.234;-2.094;2023-04-27T10:47:34;100157.17;;;17.83;43.38
73242;BME280;65659;49.234;-2.094;2023-04-27T10:49:52;100152.87;;;18.31;43.25
73242;BME280;65659;49.234;-2.094;2023-04-27T10:52:20;100153.73;;;18.07;43.35
73242;BME280;65659;49.234;-2.094;2023-04-27T10:54:47;100143.59;;;18.08;43.31
73242;BME280;65659;49.234;-2.094;2023-04-27T10:57:11;100138.89;;;18.40;43.32
73242;BME280;65659;49.234;-2.094;2023-04-27T10:59:34;100135.51;;;17.95;43.34
73242;BME280;65659;49.234;-2.094;2023-04-27T11:02:02;100136.86;;;18.31;43.34
73242;BME280;65659;49.234;-2.094;2023-04-27T11:04:37;100133.74;;;18.33;43.22
73242;BME280;65659;49.234;-2.094;2023-04-27T11:06:55;100135.46;;;18.10;43.33
73242;BME280;65659;49.234;-2.094;2023-04-27T11:09:27;100130.66;;;18.13;43.23
73242;BME280;65659;49.234;-2.094;2023-04-27T11:11:45;100125.60;;;18.22;43.22
73242;BME280;65659;49.234;-2.094;2023-04-27T11:14:12;100130.80;;;18.36;43.44
73242;BME280;65659;49.234;-2.094;2023-04-27T11:16:44;100123.33;;;18.09;43.63
73242;BME280;65659;49.234;-2.094;2023-04-27T11:19:04;100119.48;;;18.43;43.59
73242;BME280;65659;49.234;-2.094;2023-04-27T11:23:53;100104.81;;;18.50;43.60
73242;BME280;65659;49.234;-2.094;2023-04-27T11:26:17;100100.92;;;18.43;43.39
73242;BME280;65659;49.234;-2.094;2023-04-27T11:28:39;100101.83;;;18.57;43.39
73242;BME280;65659;49.234;-2.094;2023-04-27T11:31:16;100090.17;;;18.53;43.46
73242;BME280;65659;49.234;-2.094;2023-04-27T11:35:56;100092.66;;;18.96;43.57
73242;BME280;65659;49.234;-2.094;2023-04-27T11:38:20;100095.05;;;18.59;43.84
73242;BME280;65659;49.234;-2.094;2023-04-27T11:40:57;100095.19;;;18.90;43.45
73242;BME280;65659;49.234;-2.094;2023-04-27T11:43:12;100099.88;;;18.89;43.22
73242;BME280;65659;49.234;-2.094;2023-04-27T11:45:35;100101.58;;;18.66;43.22
73242;BME280;65659;49.234;-2.094;2023-04-27T11:48:01;100099.27;;;19.41;43.01
73242;BME280;65659;49.234;-2.094;2023-04-27T11:50:26;100094.15;;;20.02;44.28
73242;BME280;65659;49.234;-2.094;2023-04-27T11:52:53;100102.09;;;19.42;46.48
73242;BME280;65659;49.234;-2.094;2023-04-27T11:55:21;100091.15;;;17.66;46.77
73242;BME280;65659;49.234;-2.094;2023-04-27T11:57:43;100081.79;;;18.06;45.38
73242;BME280;65659;49.234;-2.094;2023-04-27T12:00:12;100078.61;;;17.98;44.78
73242;BME280;65659;49.234;-2.094;2023-04-27T12:02:40;100075.27;;;18.50;44.28
73242;BME280;65659;49.234;-2.094;2023-04-27T12:05:02;100079.59;;;18.60;43.89
73242;BME280;65659;49.234;-2.094;2023-04-27T12:07:26;100081.37;;;18.76;43.60
73242;BME280;65659;49.234;-2.094;2023-04-27T12:09:51;100082.45;;;18.84;43.60
73242;BME280;65659;49.234;-2.094;2023-04-27T12:12:16;100084.24;;;18.84;43.45
73242;BME280;65659;49.234;-2.094;2023-04-27T12:14:41;100082.42;;;18.77;43.42
73242;BME280;65659;49.234;-2.094;2023-04-27T12:17:07;100083.28;;;18.78;43.43
73242;BME280;65659;49.234;-2.094;2023-04-27T12:19:32;100087.19;;;18.80;43.35
73242;BME280;65659;49.234;-2.094;2023-04-27T12:21:58;100082.66;;;18.66;43.52
73242;BME280;65659;49.234;-2.094;2023-04-27T12:24:24;100077.13;;;18.74;43.66
73242;BME280;65659;49.234;-2.094;2023-04-27T12:26:50;100069.20;;;18.69;44.01
73242;BME280;65659;49.234;-2.094;2023-04-27T12:29:16;100074.95;;;18.85;44.14
73242;BME280;65659;49.234;-2.094;2023-04-27T12:31:42;100076.18;;;18.50;44.02
73242;BME280;65659;49.234;-2.094;2023-04-27T12:34:08;100073.66;;;18.54;44.06
73242;BME280;65659;49.234;-2.094;2023-04-27T12:36:46;100068.20;;;19.50;44.09
73242;BME280;65659;49.234;-2.094;2023-04-27T12:38:59;100068.01;;;18.46;44.39
73242;BME280;65659;49.234;-2.094;2023-04-27T12:41:23;100070.38;;;19.26;44.47